createdAt,value
2018-11-12T00:01:49.675Z,2.27
2018-11-12T00:04:18.632Z,3.40
2018-11-12T00:06:46.905Z,1.60
2018-11-12T00:09:15.159Z,3.30
2018-11-12T00:11:43.530Z,1.30
2018-11-12T00:14:11.828Z,1.50
2018-11-12T00:16:40.249Z,1.43
2018-11-12T00:19:08.959Z,2.90
2018-11-12T00:21:37.239Z,2.23
2018-11-12T00:24:05.857Z,1.73
2018-11-12T00:26:34.242Z,2.07
2018-11-12T00:29:02.601Z,3.20
2018-11-12T00:31:30.986Z,4.67
2018-11-12T00:33:59.258Z,2.00
2018-11-12T00:36:27.574Z,2.90
2018-11-12T00:38:55.835Z,1.77
2018-11-12T00:41:24.180Z,1.00
2018-11-12T00:43:52.537Z,2.20
2018-11-12T00:46:20.862Z,0.87
2018-11-12T00:48:49.128Z,1.70
2018-11-12T00:51:17.439Z,1.90
2018-11-12T00:53:45.726Z,1.20
2018-11-12T00:56:13.982Z,1.63
2018-11-12T00:58:42.274Z,2.27
2018-11-12T01:01:10.535Z,2.67
2018-11-12T01:03:38.799Z,1.77
2018-11-12T01:06:07.079Z,1.13
2018-11-12T01:08:35.625Z,2.20
2018-11-12T01:11:03.929Z,1.30
2018-11-12T01:13:32.213Z,1.63
2018-11-12T01:16:00.549Z,1.50
2018-11-12T01:18:28.784Z,2.10
2018-11-12T01:20:57.081Z,2.60
2018-11-12T01:23:25.412Z,2.53
2018-11-12T01:25:53.670Z,1.87
2018-11-12T01:28:21.925Z,2.10
2018-11-12T01:30:50.162Z,1.90
2018-11-12T01:33:18.557Z,1.97
2018-11-12T01:35:47.036Z,3.87
2018-11-12T01:38:15.323Z,6.27
2018-11-12T01:40:43.710Z,2.73
2018-11-12T01:43:12.086Z,1.30
2018-11-12T01:45:40.345Z,1.63
2018-11-12T01:48:08.686Z,2.53
2018-11-12T01:50:36.969Z,2.43
2018-11-12T01:53:05.678Z,1.47
2018-11-12T01:55:33.939Z,4.37
2018-11-12T01:58:02.206Z,1.50
2018-11-12T02:00:30.466Z,4.77
2018-11-12T02:02:58.748Z,2.90
2018-11-12T02:05:27.049Z,2.80
2018-11-12T02:07:55.309Z,1.90
2018-11-12T02:10:23.603Z,2.77
2018-11-12T02:12:51.857Z,3.47
2018-11-12T02:17:44.438Z,3.90
2018-11-12T02:20:13.879Z,1.93
2018-11-12T02:22:43.025Z,3.00
2018-11-12T02:25:12.233Z,3.13
2018-11-12T02:27:40.617Z,3.83
2018-11-12T02:30:14.030Z,3.57
2018-11-12T02:32:42.352Z,6.80
2018-11-12T02:35:11.028Z,2.43
2018-11-12T02:37:39.936Z,3.30
2018-11-12T02:40:10.254Z,3.50
2018-11-12T02:42:38.527Z,1.60
2018-11-12T02:45:07.518Z,2.43
2018-11-12T02:47:35.843Z,1.87
2018-11-12T02:50:04.166Z,2.30
2018-11-12T02:52:32.614Z,3.67
2018-11-12T02:55:00.942Z,5.13
2018-11-12T02:57:29.244Z,2.43
2018-11-12T02:59:57.515Z,2.30
2018-11-12T03:02:25.900Z,3.40
2018-11-12T03:04:54.158Z,1.97
2018-11-12T03:07:22.458Z,2.40
2018-11-12T03:09:50.765Z,4.50
2018-11-12T03:12:19.029Z,1.93
2018-11-12T03:14:47.293Z,1.97
2018-11-12T03:17:15.562Z,2.37
2018-11-12T03:19:43.828Z,3.93
2018-11-12T03:22:12.115Z,2.90
2018-11-12T03:24:40.506Z,2.17
2018-11-12T03:27:08.798Z,2.40
2018-11-12T03:29:37.041Z,2.87
2018-11-12T03:32:05.635Z,1.40
2018-11-12T03:34:33.906Z,2.03
2018-11-12T03:37:02.203Z,4.17
2018-11-12T03:39:30.461Z,2.03
2018-11-12T03:41:58.728Z,4.17
2018-11-12T03:44:27.024Z,1.00
2018-11-12T03:46:55.305Z,1.17
2018-11-12T03:49:23.579Z,1.73
2018-11-12T03:51:51.868Z,1.37
2018-11-12T03:54:20.130Z,3.17
2018-11-12T03:56:48.913Z,0.80
2018-11-12T03:59:17.197Z,1.10
2018-11-12T04:01:46.143Z,2.20
2018-11-12T04:04:16.105Z,4.03
2018-11-12T04:06:45.174Z,1.47
2018-11-12T04:09:13.517Z,1.73
2018-11-12T04:11:43.576Z,2.50
2018-11-12T04:14:13.029Z,1.53
2018-11-12T04:16:43.073Z,1.20
2018-11-12T04:19:11.407Z,1.77
2018-11-12T04:21:39.822Z,3.03
2018-11-12T04:24:08.197Z,2.13
2018-11-12T04:26:38.446Z,2.63
2018-11-12T04:29:06.743Z,2.33
2018-11-12T04:31:35.010Z,2.10
2018-11-12T04:34:03.332Z,4.27
2018-11-12T04:36:31.625Z,1.57
2018-11-12T04:38:59.910Z,2.33
2018-11-12T04:41:28.193Z,2.80
2018-11-12T04:43:56.579Z,1.90
2018-11-12T04:46:24.872Z,3.00
2018-11-12T04:48:53.181Z,1.20
2018-11-12T04:51:21.433Z,2.20
2018-11-12T04:53:49.854Z,2.60
2018-11-12T04:56:18.237Z,2.97
2018-11-12T04:58:46.533Z,2.63
2018-11-12T05:01:14.813Z,3.97
2018-11-12T05:03:43.112Z,2.93
2018-11-12T05:06:11.375Z,2.80
2018-11-12T05:08:39.634Z,3.00
2018-11-12T05:11:07.906Z,2.23
2018-11-12T05:13:36.414Z,1.97
2018-11-12T05:16:05.106Z,4.03
2018-11-12T05:18:33.555Z,3.60
2018-11-12T05:21:01.813Z,2.00
2018-11-12T05:23:30.102Z,3.50
2018-11-12T05:25:58.415Z,4.07
2018-11-12T05:28:26.693Z,1.60
2018-11-12T05:30:55.017Z,3.33
2018-11-12T05:33:23.346Z,4.73
2018-11-12T05:35:51.633Z,3.60
2018-11-12T05:38:20.000Z,3.00
2018-11-12T05:40:48.221Z,6.60
2018-11-12T05:43:16.662Z,2.53
2018-11-12T05:45:44.913Z,4.62
2018-11-12T05:48:13.193Z,3.10
2018-11-12T05:50:41.590Z,2.77
2018-11-12T05:53:09.914Z,4.70
2018-11-12T05:55:38.248Z,2.80
2018-11-12T05:58:06.508Z,3.03
2018-11-12T06:00:35.995Z,3.93
2018-11-12T06:03:04.502Z,2.50
2018-11-12T06:05:33.637Z,3.00
2018-11-12T06:08:02.121Z,3.43
2018-11-12T06:10:31.387Z,2.50
2018-11-12T06:12:59.644Z,3.27
2018-11-12T06:15:27.938Z,1.90
2018-11-12T06:17:56.229Z,3.50
2018-11-12T06:20:31.968Z,6.30
2018-11-12T06:23:00.397Z,3.40
2018-11-12T06:25:30.157Z,3.50
2018-11-12T06:27:58.521Z,4.95
2018-11-12T06:30:28.281Z,4.65
2018-11-12T06:32:56.531Z,2.90
2018-11-12T06:35:24.875Z,3.43
2018-11-12T06:37:53.723Z,4.40
2018-11-12T06:40:23.161Z,3.52
2018-11-12T06:42:51.576Z,2.50
2018-11-12T06:45:20.973Z,3.47
2018-11-12T06:47:50.271Z,3.07
2018-11-12T06:50:23.773Z,4.03
2018-11-12T06:52:52.054Z,2.80
2018-11-12T06:55:20.809Z,3.43
2018-11-12T06:57:49.376Z,3.63
2018-11-12T07:00:20.035Z,2.47
2018-11-12T07:02:48.432Z,2.70
2018-11-12T07:05:17.229Z,3.17
2018-11-12T07:07:45.510Z,4.13
2018-11-12T07:10:15.092Z,3.90
2018-11-12T07:12:44.218Z,3.23
2018-11-12T07:15:13.915Z,3.00
2018-11-12T07:17:42.214Z,5.73
2018-11-12T07:20:15.063Z,6.93
2018-11-12T07:22:43.455Z,6.87
2018-11-12T07:25:12.620Z,4.00
2018-11-12T07:27:40.900Z,5.47
2018-11-12T07:30:11.069Z,3.37
2018-11-12T07:32:39.377Z,4.43
2018-11-12T07:35:08.907Z,5.30
2018-11-12T07:37:37.212Z,4.77
2018-11-12T07:40:06.776Z,4.27
2018-11-12T07:42:35.178Z,5.83
2018-11-12T07:45:03.502Z,3.70
2018-11-12T07:47:31.765Z,8.17
2018-11-12T07:50:00.018Z,5.03
2018-11-12T07:52:28.351Z,6.50
2018-11-12T07:54:56.646Z,6.50
2018-11-12T07:57:24.944Z,4.50
2018-11-12T07:59:53.331Z,4.00
2018-11-12T08:02:21.635Z,4.93
2018-11-12T08:04:49.908Z,5.40
2018-11-12T08:07:18.191Z,4.97
2018-11-12T08:09:46.463Z,5.37
2018-11-12T08:12:14.741Z,4.80
2018-11-12T08:14:43.113Z,4.03
2018-11-12T08:17:11.307Z,3.97
2018-11-12T08:19:39.560Z,4.70
2018-11-12T08:22:07.840Z,4.63
2018-11-12T08:24:36.210Z,8.67
2018-11-12T08:27:04.438Z,6.03
2018-11-12T08:29:32.729Z,4.20
2018-11-12T08:32:00.966Z,6.90
2018-11-12T08:34:29.221Z,5.57
2018-11-12T08:36:57.501Z,8.80
2018-11-12T08:39:26.047Z,7.37
2018-11-12T08:41:54.288Z,8.03
2018-11-12T08:44:22.662Z,7.93
2018-11-12T08:46:51.016Z,11.23
2018-11-12T08:49:19.309Z,9.60
2018-11-12T08:51:47.557Z,10.33
2018-11-12T08:54:15.873Z,8.97
2018-11-12T08:56:44.113Z,7.37
2018-11-12T08:59:12.420Z,10.83
2018-11-12T09:01:40.750Z,7.73
2018-11-12T09:04:09.121Z,7.20
2018-11-12T09:06:37.353Z,7.73
2018-11-12T09:09:08.846Z,6.83
2018-11-12T09:11:37.106Z,7.27
2018-11-12T09:14:06.141Z,6.27
2018-11-12T09:16:34.438Z,4.50
2018-11-12T09:19:03.073Z,6.33
2018-11-12T09:21:31.334Z,5.03
2018-11-12T09:24:00.856Z,6.83
2018-11-12T09:26:29.333Z,5.43
2018-11-12T09:28:57.610Z,4.63
2018-11-12T09:31:27.104Z,5.87
2018-11-12T09:38:51.207Z,6.53
2018-11-12T09:41:19.433Z,6.77
2018-11-12T09:43:47.749Z,8.40
2018-11-12T09:46:16.278Z,8.27
2018-11-12T09:48:44.907Z,8.30
2018-11-12T09:51:13.331Z,8.77
2018-11-12T09:53:41.809Z,9.33
2018-11-12T09:56:10.066Z,11.77
2018-11-12T09:58:38.412Z,9.90
2018-11-12T10:01:06.815Z,10.17
2018-11-12T10:03:36.052Z,8.90
2018-11-12T10:06:04.277Z,14.73
2018-11-12T10:08:35.338Z,9.30
2018-11-12T10:11:04.433Z,14.30
2018-11-12T10:13:33.573Z,9.83
2018-11-12T10:16:03.098Z,9.33
2018-11-12T10:18:27.472Z,9.53
2018-11-12T10:20:55.829Z,10.17
2018-11-12T10:23:24.130Z,9.60
2018-11-12T10:25:52.625Z,11.27
2018-11-12T10:28:22.013Z,11.53
2018-11-12T10:30:50.529Z,7.57
2018-11-12T10:33:19.145Z,7.77
2018-11-12T10:35:47.701Z,7.50
2018-11-12T10:38:16.506Z,8.27
2018-11-12T10:40:44.859Z,7.27
2018-11-12T10:43:13.115Z,6.43
2018-11-12T10:45:41.454Z,7.20
2018-11-12T10:48:09.860Z,10.37
2018-11-12T10:50:38.049Z,7.83
2018-11-12T10:53:06.407Z,6.93
2018-11-12T10:55:34.884Z,6.03
2018-11-12T10:58:02.925Z,6.43
2018-11-12T11:00:37.652Z,5.97
2018-11-12T11:03:44.808Z,6.07
2018-11-12T11:06:13.129Z,8.07
2018-11-12T11:08:41.390Z,6.03
2018-11-12T11:11:09.684Z,7.67
2018-11-12T11:13:38.047Z,9.33
2018-11-12T11:16:06.314Z,8.37
2018-11-12T11:18:34.667Z,8.30
2018-11-12T11:21:03.072Z,11.93
2018-11-12T11:23:31.328Z,12.07
2018-11-12T11:25:59.712Z,8.57
2018-11-12T11:28:28.009Z,9.37
2018-11-12T11:30:56.354Z,9.23
2018-11-12T11:33:24.593Z,8.70
2018-11-12T11:35:53.063Z,7.47
2018-11-12T11:38:21.337Z,9.23
2018-11-12T11:40:49.638Z,10.57
2018-11-12T11:43:17.945Z,8.97
2018-11-12T11:45:46.256Z,9.37
2018-11-12T11:48:14.586Z,8.57
2018-11-12T11:50:42.902Z,14.03
2018-11-12T11:53:11.161Z,11.63
2018-11-12T11:55:39.467Z,12.27
2018-11-12T11:58:07.761Z,10.07
2018-11-12T12:00:36.027Z,6.90
2018-11-12T12:03:04.373Z,9.93
2018-11-12T12:05:32.609Z,7.90
2018-11-12T12:08:00.904Z,11.97
2018-11-12T12:10:29.155Z,8.80
2018-11-12T12:12:57.488Z,8.83
2018-11-12T12:15:25.742Z,7.13
2018-11-12T12:17:54.271Z,7.30
2018-11-12T12:20:24.118Z,9.50
2018-11-12T12:22:52.743Z,7.63
2018-11-12T12:25:21.340Z,8.93
2018-11-12T12:27:50.059Z,5.67
2018-11-12T12:30:19.743Z,8.00
2018-11-12T12:32:49.015Z,7.07
2018-11-12T12:35:17.369Z,7.80
2018-11-12T12:37:46.219Z,7.90
2018-11-12T12:40:15.814Z,10.60
2018-11-12T12:42:44.125Z,7.87
2018-11-12T12:45:14.891Z,7.70
2018-11-12T12:50:24.375Z,7.80
2018-11-12T12:52:52.653Z,8.37
2018-11-12T12:55:21.224Z,9.23
2018-11-12T12:57:49.636Z,8.40
2018-11-12T13:00:22.202Z,11.20
2018-11-12T13:02:50.609Z,8.40
2018-11-12T13:05:18.936Z,11.17
2018-11-12T13:07:47.202Z,8.53
2018-11-12T13:10:16.721Z,8.80
2018-11-12T13:12:45.034Z,9.83
2018-11-12T13:15:15.291Z,9.47
2018-11-12T13:17:44.162Z,9.40
2018-11-12T13:20:13.883Z,9.73
2018-11-12T13:22:42.859Z,12.73
2018-11-12T13:25:11.270Z,11.50
2018-11-12T13:27:39.714Z,10.27
2018-11-12T13:30:09.898Z,11.53
2018-11-12T13:32:38.913Z,12.03
2018-11-12T13:35:08.663Z,13.87
2018-11-12T13:37:37.221Z,13.67
2018-11-12T13:40:08.037Z,15.00
2018-11-12T13:42:36.363Z,14.83
2018-11-12T13:45:05.154Z,16.53
2018-11-12T13:47:33.470Z,17.50
2018-11-12T13:50:01.779Z,17.43
2018-11-12T13:52:30.069Z,18.50
2018-11-12T13:54:58.398Z,21.73
2018-11-12T13:57:26.706Z,22.97
2018-11-12T13:59:55.003Z,22.97
2018-11-12T14:02:23.315Z,20.80
2018-11-12T14:04:51.649Z,21.40
2018-11-12T14:07:19.914Z,21.97
2018-11-12T14:09:48.205Z,24.83
2018-11-12T14:12:16.474Z,24.50
2018-11-12T14:14:44.792Z,23.60
2018-11-12T14:17:13.126Z,25.13
2018-11-12T14:19:41.413Z,23.97
2018-11-12T14:22:09.783Z,24.77
2018-11-12T14:24:38.066Z,25.53
2018-11-12T14:27:06.957Z,24.93
2018-11-12T14:29:35.311Z,26.80
2018-11-12T14:32:03.606Z,27.40
2018-11-12T14:34:31.970Z,26.33
2018-11-12T14:37:00.340Z,26.17
2018-11-12T14:39:28.970Z,28.00
2018-11-12T14:41:57.278Z,28.53
2018-11-12T14:44:25.542Z,25.63
2018-11-12T14:46:53.808Z,29.77
2018-11-12T14:49:22.086Z,26.93
2018-11-12T14:51:50.441Z,29.77
2018-11-12T14:54:18.740Z,27.30
2018-11-12T14:56:47.032Z,30.90
2018-11-12T14:59:15.313Z,28.77
2018-11-12T15:01:43.694Z,31.90
2018-11-12T15:04:11.907Z,33.97
2018-11-12T15:06:40.287Z,32.73
2018-11-12T15:09:10.087Z,34.13
2018-11-12T15:11:38.505Z,33.13
2018-11-12T15:14:07.505Z,35.40
2018-11-12T15:16:35.806Z,31.67
2018-11-12T15:19:04.105Z,36.57
2018-11-12T15:21:32.445Z,34.30
2018-11-12T15:24:00.761Z,40.77
2018-11-12T15:26:29.465Z,41.63
2018-11-12T15:28:58.234Z,39.30
2018-11-12T15:31:26.690Z,42.40
2018-11-12T15:33:54.957Z,46.60
2018-11-12T15:36:23.413Z,46.80
2018-11-12T15:38:51.719Z,44.43
2018-11-12T15:41:25.838Z,46.70
2018-11-12T15:43:54.125Z,47.47
2018-11-12T15:46:22.401Z,52.30
2018-11-12T15:48:50.689Z,49.43
2018-11-12T15:51:18.998Z,53.60
2018-11-12T15:53:47.301Z,54.93
2018-11-12T15:56:15.598Z,50.43
2018-11-12T15:58:43.929Z,53.70
2018-11-12T16:01:12.185Z,53.90
2018-11-12T16:03:41.081Z,55.07
2018-11-12T16:06:09.503Z,58.57
2018-11-12T16:08:37.700Z,54.73
2018-11-12T16:11:06.954Z,52.67
2018-11-12T16:13:35.279Z,51.17
2018-11-12T16:16:03.584Z,53.10
2018-11-12T16:18:31.870Z,54.20
2018-11-12T16:21:00.165Z,57.97
2018-11-12T16:23:28.413Z,55.90
2018-11-12T16:25:56.704Z,55.87
2018-11-12T16:28:25.057Z,60.37
2018-11-12T16:30:53.338Z,64.60
2018-11-12T16:33:21.818Z,59.17
2018-11-12T16:35:50.330Z,56.37
2018-11-12T16:38:18.794Z,57.10
2018-11-12T16:40:47.144Z,56.00
2018-11-12T16:43:15.401Z,55.83
2018-11-12T16:45:43.715Z,56.43
2018-11-12T16:48:12.014Z,53.70
2018-11-12T16:50:40.373Z,63.13
2018-11-12T16:53:08.621Z,52.67
2018-11-12T16:55:36.910Z,53.73
2018-11-12T16:58:05.439Z,57.73
2018-11-12T17:00:34.836Z,57.33
2018-11-12T17:03:03.190Z,57.20
2018-11-12T17:05:31.511Z,58.03
2018-11-12T17:07:59.813Z,58.77
2018-11-12T17:10:28.139Z,53.20
2018-11-12T17:12:56.496Z,51.37
2018-11-12T17:15:24.930Z,50.73
2018-11-12T17:17:53.247Z,45.30
2018-11-12T17:20:22.101Z,42.90
2018-11-12T17:22:50.565Z,39.83
2018-11-12T17:25:19.251Z,37.37
2018-11-12T17:27:48.072Z,37.50
2018-11-12T17:30:18.339Z,39.30
2018-11-12T17:32:47.110Z,31.97
2018-11-12T17:35:16.630Z,34.00
2018-11-12T17:37:44.919Z,34.10
2018-11-12T17:40:16.620Z,29.40
2018-11-12T17:42:45.908Z,28.03
2018-11-12T17:45:17.544Z,27.87
2018-11-12T17:47:49.460Z,28.97
2018-11-12T17:50:17.852Z,33.10
2018-11-12T17:52:47.656Z,30.70
2018-11-12T17:55:18.172Z,30.17
2018-11-12T17:57:46.632Z,26.27
2018-11-12T18:00:19.398Z,31.20
2018-11-12T18:02:47.969Z,29.47
2018-11-12T18:05:16.419Z,31.00
2018-11-12T18:07:44.933Z,35.43
2018-11-12T18:10:14.329Z,37.45
2018-11-12T18:12:42.640Z,35.85
2018-11-12T18:15:13.553Z,31.47
2018-11-12T18:17:42.087Z,32.33
2018-11-12T18:20:20.020Z,33.33
2018-11-12T18:22:48.946Z,34.33
2018-11-12T18:25:17.398Z,36.13
2018-11-12T18:27:46.417Z,38.23
2018-11-12T18:30:17.080Z,34.27
2018-11-12T18:32:46.138Z,35.70
2018-11-12T18:35:14.594Z,37.73
2018-11-12T18:37:42.992Z,36.57
2018-11-12T18:40:12.913Z,39.23
2018-11-12T18:42:41.375Z,44.53
2018-11-12T18:45:12.254Z,39.43
2018-11-12T18:47:40.973Z,40.23
2018-11-12T18:50:12.375Z,39.23
2018-11-12T18:52:42.067Z,37.67
2018-11-12T18:55:10.904Z,36.17
2018-11-12T18:57:39.729Z,42.10
2018-11-12T19:00:09.886Z,38.80
2018-11-12T19:02:38.527Z,39.60
2018-11-12T19:05:10.130Z,37.20
2018-11-12T19:07:39.186Z,44.70
2018-11-12T19:10:10.326Z,37.17
2018-11-12T19:12:38.869Z,36.63
2018-11-12T19:15:10.169Z,42.87
2018-11-12T19:17:38.521Z,40.87
2018-11-12T19:20:07.133Z,36.97
2018-11-12T19:22:35.649Z,37.57
2018-11-12T19:25:04.063Z,36.03
2018-11-12T19:27:32.402Z,40.53
2018-11-12T19:30:01.075Z,39.47
2018-11-12T19:32:29.491Z,35.70
2018-11-12T19:34:58.154Z,37.67
2018-11-12T19:37:26.534Z,42.80
2018-11-12T19:39:54.988Z,35.17
2018-11-12T19:42:26.467Z,36.87
2018-11-12T19:44:54.856Z,33.87
2018-11-12T19:47:23.173Z,33.13
2018-11-12T19:49:51.498Z,36.57
2018-11-12T19:52:19.786Z,33.73
2018-11-12T19:54:48.194Z,35.80
2018-11-12T19:57:16.549Z,35.70
2018-11-12T19:59:44.882Z,34.87
2018-11-12T20:02:13.287Z,37.97
2018-11-12T20:04:41.626Z,36.43
2018-11-12T20:07:10.377Z,40.50
2018-11-12T20:09:38.702Z,37.23
2018-11-12T20:12:07.119Z,36.83
2018-11-12T20:14:35.559Z,38.37
2018-11-12T20:17:04.280Z,41.00
2018-11-12T20:19:32.697Z,42.53
2018-11-12T20:22:01.103Z,42.43
2018-11-12T20:24:31.581Z,39.07
2018-11-12T20:27:00.172Z,37.40
2018-11-12T20:29:29.712Z,38.97
2018-11-12T20:31:58.248Z,40.00
2018-11-12T20:34:26.708Z,40.20
2018-11-12T20:36:55.009Z,42.50
2018-11-12T20:39:23.499Z,44.77
2018-11-12T20:41:51.809Z,37.97
2018-11-12T20:44:20.193Z,43.33
2018-11-12T20:46:48.567Z,41.43
2018-11-12T20:49:17.198Z,38.77
2018-11-12T20:51:45.508Z,43.23
2018-11-12T20:54:14.920Z,45.03
2018-11-12T20:56:43.365Z,42.47
2018-11-12T20:59:11.716Z,41.87
2018-11-12T21:01:40.219Z,43.70
2018-11-12T21:04:08.592Z,43.93
2018-11-12T21:06:38.149Z,44.83
2018-11-12T21:09:11.319Z,37.07
2018-11-12T21:11:39.617Z,41.17
2018-11-12T21:14:07.932Z,42.73
2018-11-12T21:16:37.015Z,46.47
2018-11-12T21:19:05.817Z,41.90
2018-11-12T21:21:34.157Z,42.13
2018-11-12T21:24:02.486Z,44.70
2018-11-12T21:26:30.775Z,45.83
2018-11-12T21:28:59.592Z,43.47
2018-11-12T21:31:27.952Z,50.57
2018-11-12T21:33:56.257Z,48.90
2018-11-12T21:36:24.801Z,44.03
2018-11-12T21:38:53.193Z,45.77
2018-11-12T21:41:21.546Z,45.67
2018-11-12T21:43:49.943Z,42.47
2018-11-12T21:46:18.236Z,47.07
2018-11-12T21:48:46.600Z,48.80
2018-11-12T21:51:15.001Z,47.30
2018-11-12T21:53:43.380Z,48.27
2018-11-12T21:56:11.756Z,48.53
2018-11-12T21:58:41.258Z,45.23
2018-11-12T22:01:09.487Z,44.43
2018-11-12T22:03:37.807Z,46.70
2018-11-12T22:06:06.192Z,50.93
2018-11-12T22:08:34.576Z,45.13
2018-11-12T22:11:02.919Z,45.93
2018-11-12T22:13:31.177Z,42.13
2018-11-12T22:16:00.119Z,46.00
2018-11-12T22:18:28.377Z,45.40
2018-11-12T22:20:56.667Z,54.33
2018-11-12T22:23:24.932Z,46.17
2018-11-12T22:25:53.338Z,45.77
2018-11-12T22:28:21.721Z,44.57
2018-11-12T22:30:49.897Z,43.87
2018-11-12T22:33:18.155Z,48.47
2018-11-12T22:35:46.422Z,39.87
2018-11-12T22:38:14.695Z,41.13
2018-11-12T22:40:43.005Z,40.77
2018-11-12T22:43:11.321Z,45.33
2018-11-12T22:45:39.578Z,38.00
2018-11-12T22:48:07.816Z,39.37
2018-11-12T22:50:36.184Z,33.97
2018-11-12T22:53:04.448Z,36.20
2018-11-12T22:55:32.713Z,33.20
2018-11-12T22:58:00.961Z,32.20
2018-11-12T23:00:30.426Z,33.23
2018-11-12T23:02:59.453Z,34.63
2018-11-12T23:05:27.793Z,31.00
2018-11-12T23:07:56.545Z,33.80
2018-11-12T23:10:24.825Z,31.67
2018-11-12T23:12:53.085Z,29.40
2018-11-12T23:15:21.649Z,35.53
2018-11-12T23:17:50.120Z,30.53
2018-11-12T23:20:19.904Z,30.20
2018-11-12T23:22:48.685Z,31.90
2018-11-12T23:25:16.925Z,32.87
2018-11-12T23:27:45.741Z,29.40
2018-11-12T23:30:15.513Z,37.50
2018-11-12T23:32:43.780Z,32.17
2018-11-12T23:35:13.949Z,32.07
2018-11-12T23:37:42.986Z,33.57
2018-11-12T23:40:11.758Z,34.67
2018-11-12T23:42:40.237Z,37.37
2018-11-12T23:45:08.618Z,34.07
2018-11-12T23:47:37.504Z,32.40
2018-11-12T23:50:08.572Z,40.03
2018-11-12T23:52:36.826Z,36.47
2018-11-12T23:55:05.310Z,39.17
2018-11-12T23:57:33.569Z,37.70
